sensor_id;sensor_type;location;lat;lon;timestamp;pressure;altitude;pressure_sealevel;temperature;humidity
69524;BME280;56723;42.694;23.286;2022-12-07T07:00:03;94998.16;;;3.32;100.00
69524;BME280;56723;42.694;23.286;2022-12-07T07:02:31;95000.22;;;3.38;100.00
69524;BME280;56723;42.694;23.286;2022-12-07T07:04:58;94997.41;;;3.41;100.00
69524;BME280;56723;42.694;23.286;2022-12-07T07:07:25;95002.53;;;3.41;100.00
69524;BME280;56723;42.694;23.286;2022-12-07T07:09:52;95007.41;;;3.44;100.00
69524;BME280;56723;42.694;23.286;2022-12-07T07:12:20;94998.94;;;3.43;100.00
69524;BME280;56723;42.694;23.286;2022-12-07T07:14:47;95007.06;;;3.48;100.00
69524;BME280;56723;42.694;23.286;2022-12-07T07:17:14;95001.13;;;3.48;100.00
69524;BME280;56723;42.694;23.286;2022-12-07T07:19:41;94989.94;;;3.49;100.00
69524;BME280;56723;42.694;23.286;2022-12-07T07:22:08;94998.25;;;3.62;100.00
69524;BME280;56723;42.694;23.286;2022-12-07T07:24:35;94997.09;;;3.66;100.00
69524;BME280;56723;42.694;23.286;2022-12-07T07:27:02;94994.41;;;3.68;100.00
69524;BME280;56723;42.694;23.286;2022-12-07T07:29:29;95010.06;;;3.74;100.00
69524;BME280;56723;42.694;23.286;2022-12-07T07:31:55;95003.53;;;3.81;100.00
69524;BME280;56723;42.694;23.286;2022-12-07T07:34:30;95009.22;;;3.85;100.00
69524;BME280;56723;42.694;23.286;2022-12-07T07:36:57;95002.75;;;3.91;100.00
69524;BME280;56723;42.694;23.286;2022-12-07T07:39:24;95007.84;;;4.02;100.00
69524;BME280;56723;42.694;23.286;2022-12-07T07:41:50;95006.91;;;4.03;100.00
69524;BME280;56723;42.694;23.286;2022-12-07T07:44:24;95007.06;;;4.11;100.00
69524;BME280;56723;42.694;23.286;2022-12-07T07:46:57;95003.78;;;4.20;100.00
69524;BME280;56723;42.694;23.286;2022-12-07T07:49:23;95006.91;;;4.24;100.00
69524;BME280;56723;42.694;23.286;2022-12-07T07:51:50;95007.72;;;4.24;100.00
69524;BME280;56723;42.694;23.286;2022-12-07T07:54:17;95006.00;;;4.34;100.00
69524;BME280;56723;42.694;23.286;2022-12-07T07:56:44;94998.44;;;4.33;100.00
69524;BME280;56723;42.694;23.286;2022-12-07T07:59:11;95000.94;;;4.44;100.00
69524;BME280;56723;42.694;23.286;2022-12-07T08:01:37;95002.59;;;4.64;100.00
69524;BME280;56723;42.694;23.286;2022-12-07T08:04:04;95004.28;;;4.75;100.00
69524;BME280;56723;42.694;23.286;2022-12-07T08:06:31;95009.84;;;4.90;100.00
69524;BME280;56723;42.694;23.286;2022-12-07T08:08:58;94992.59;;;5.01;100.00
69524;BME280;56723;42.694;23.286;2022-12-07T08:11:25;94995.59;;;5.16;100.00
69524;BME280;56723;42.694;23.286;2022-12-07T08:13:52;94994.25;;;5.21;100.00
69524;BME280;56723;42.694;23.286;2022-12-07T08:16:19;94987.50;;;5.30;100.00
69524;BME280;56723;42.694;23.286;2022-12-07T08:18:46;94999.41;;;5.41;100.00
69524;BME280;56723;42.694;23.286;2022-12-07T08:21:14;95001.31;;;5.58;100.00
69524;BME280;56723;42.694;23.286;2022-12-07T08:23:41;94991.84;;;5.68;100.00
69524;BME280;56723;42.694;23.286;2022-12-07T08:26:10;94991.03;;;5.68;100.00
69524;BME280;56723;42.694;23.286;2022-12-07T08:28:38;94988.59;;;5.66;100.00
69524;BME280;56723;42.694;23.286;2022-12-07T08:31:14;95000.78;;;5.64;100.00
69524;BME280;56723;42.694;23.286;2022-12-07T08:33:42;95001.59;;;5.55;100.00
69524;BME280;56723;42.694;23.286;2022-12-07T08:36:11;95009.44;;;5.53;100.00
69524;BME280;56723;42.694;23.286;2022-12-07T08:38:39;95001.31;;;5.58;100.00
69524;BME280;56723;42.694;23.286;2022-12-07T08:41:17;94991.03;;;5.58;100.00
69524;BME280;56723;42.694;23.286;2022-12-07T08:43:44;94993.47;;;5.50;100.00
69524;BME280;56723;42.694;23.286;2022-12-07T08:46:41;94987.53;;;5.49;100.00
69524;BME280;56723;42.694;23.286;2022-12-07T08:49:16;94987.91;;;5.45;100.00
69524;BME280;56723;42.694;23.286;2022-12-07T08:51:45;94984.81;;;5.41;100.00
69524;BME280;56723;42.694;23.286;2022-12-07T08:54:14;94986.97;;;5.36;100.00
69524;BME280;56723;42.694;23.286;2022-12-07T08:56:44;94969.66;;;5.29;100.00
69524;BME280;56723;42.694;23.286;2022-12-07T08:59:13;94975.34;;;5.42;100.00
69524;BME280;56723;42.694;23.286;2022-12-07T09:01:41;94968.03;;;5.47;100.00
69524;BME280;56723;42.694;23.286;2022-12-07T09:04:08;94965.22;;;5.50;100.00
69524;BME280;56723;42.694;23.286;2022-12-07T09:06:35;94964.69;;;5.56;100.00
69524;BME280;56723;42.694;23.286;2022-12-07T09:09:03;94963.69;;;5.57;100.00
69524;BME280;56723;42.694;23.286;2022-12-07T09:11:30;94961.00;;;5.49;100.00
69524;BME280;56723;42.694;23.286;2022-12-07T09:13:57;94957.22;;;5.53;100.00
69524;BME280;56723;42.694;23.286;2022-12-07T09:16:24;94958.84;;;5.54;100.00
69524;BME280;56723;42.694;23.286;2022-12-07T09:18:51;94955.72;;;5.60;100.00
69524;BME280;56723;42.694;23.286;2022-12-07T09:21:17;94963.84;;;5.65;100.00
69524;BME280;56723;42.694;23.286;2022-12-07T09:23:44;94957.34;;;5.61;100.00
69524;BME280;56723;42.694;23.286;2022-12-07T09:26:11;94959.91;;;5.71;100.00
69524;BME280;56723;42.694;23.286;2022-12-07T09:28:39;94951.25;;;5.72;100.00
69524;BME280;56723;42.694;23.286;2022-12-07T09:31:06;94944.75;;;5.77;100.00
69524;BME280;56723;42.694;23.286;2022-12-07T09:33:55;94943.69;;;5.89;100.00
69524;BME280;56723;42.694;23.286;2022-12-07T09:36:23;94942.47;;;5.94;99.75
69524;BME280;56723;42.694;23.286;2022-12-07T09:38:51;94943.91;;;5.96;99.47
69524;BME280;56723;42.694;23.286;2022-12-07T09:41:19;94925.13;;;5.96;99.48
69524;BME280;56723;42.694;23.286;2022-12-07T09:43:46;94921.72;;;6.05;98.05
69524;BME280;56723;42.694;23.286;2022-12-07T09:46:15;94915.22;;;6.10;97.80
69524;BME280;56723;42.694;23.286;2022-12-07T09:48:47;94930.47;;;6.21;97.30
69524;BME280;56723;42.694;23.286;2022-12-07T09:51:19;94931.81;;;6.25;96.87
69524;BME280;56723;42.694;23.286;2022-12-07T09:53:51;94921.66;;;6.24;99.08
69524;BME280;56723;42.694;23.286;2022-12-07T09:56:19;94914.88;;;6.50;100.00
69524;BME280;56723;42.694;23.286;2022-12-07T09:58:48;94919.59;;;6.65;98.42
69524;BME280;56723;42.694;23.286;2022-12-07T10:01:18;94911.94;;;6.73;96.79
69524;BME280;56723;42.694;23.286;2022-12-07T10:06:17;94908.56;;;6.90;93.00
69524;BME280;56723;42.694;23.286;2022-12-07T10:08:45;94900.66;;;7.01;91.41
69524;BME280;56723;42.694;23.286;2022-12-07T10:11:12;94901.00;;;7.06;89.99
69524;BME280;56723;42.694;23.286;2022-12-07T10:13:46;94896.75;;;7.15;89.82
69524;BME280;56723;42.694;23.286;2022-12-07T10:18:52;94899.16;;;7.52;89.05
69524;BME280;56723;42.694;23.286;2022-12-07T10:21:26;94887.72;;;7.72;86.13
69524;BME280;56723;42.694;23.286;2022-12-07T10:31:59;94869.06;;;7.78;84.13
69524;BME280;56723;42.694;23.286;2022-12-07T10:39:47;94871.13;;;7.75;84.41
69524;BME280;56723;42.694;23.286;2022-12-07T10:45:03;94858.34;;;7.91;84.26
69524;BME280;56723;42.694;23.286;2022-12-07T10:48:02;94853.53;;;7.96;82.95
69524;BME280;56723;42.694;23.286;2022-12-07T10:53:33;94850.28;;;7.94;82.87
69524;BME280;56723;42.694;23.286;2022-12-07T10:59:03;94844.97;;;7.95;83.27
69524;BME280;56723;42.694;23.286;2022-12-07T11:15:40;94815.47;;;10.27;71.46
69524;BME280;56723;42.694;23.286;2022-12-07T11:21:03;94803.19;;;10.83;67.62
69524;BME280;56723;42.694;23.286;2022-12-07T11:29:19;94798.53;;;11.01;65.47
69524;BME280;56723;42.694;23.286;2022-12-07T11:31:53;94791.06;;;11.06;65.77
69524;BME280;56723;42.694;23.286;2022-12-07T11:37:01;94782.13;;;11.31;63.64
69524;BME280;56723;42.694;23.286;2022-12-07T11:39:37;94782.38;;;11.36;62.59
69524;BME280;56723;42.694;23.286;2022-12-07T11:42:14;94781.78;;;11.49;62.91
69524;BME280;56723;42.694;23.286;2022-12-07T11:44:53;94782.78;;;11.48;62.88
69524;BME280;56723;42.694;23.286;2022-12-07T11:47:40;94790.13;;;11.74;62.74
69524;BME280;56723;42.694;23.286;2022-12-07T11:53:09;94772.25;;;12.38;58.23
69524;BME280;56723;42.694;23.286;2022-12-07T12:01:55;94749.97;;;12.50;57.22
69524;BME280;56723;42.694;23.286;2022-12-07T12:04:30;94755.09;;;12.43;57.74
69524;BME280;56723;42.694;23.286;2022-12-07T12:07:01;94757.41;;;12.02;58.61
69524;BME280;56723;42.694;23.286;2022-12-07T12:10:34;94745.66;;;11.62;60.47
69524;BME280;56723;42.694;23.286;2022-12-07T12:13:15;94753.19;;;11.34;62.22
69524;BME280;56723;42.694;23.286;2022-12-07T12:22:07;94739.38;;;11.42;62.42
69524;BME280;56723;42.694;23.286;2022-12-07T12:24:37;94740.22;;;11.34;62.49
69524;BME280;56723;42.694;23.286;2022-12-07T12:27:07;94740.06;;;11.36;63.22
69524;BME280;56723;42.694;23.286;2022-12-07T12:29:39;94732.44;;;11.34;63.53
69524;BME280;56723;42.694;23.286;2022-12-07T12:32:34;94735.78;;;11.43;62.36
69524;BME280;56723;42.694;23.286;2022-12-07T12:35:36;94718.16;;;11.38;63.04
69524;BME280;56723;42.694;23.286;2022-12-07T12:40:52;94708.50;;;11.47;62.93
69524;BME280;56723;42.694;23.286;2022-12-07T12:43:52;94705.38;;;11.96;60.67
69524;BME280;56723;42.694;23.286;2022-12-07T12:51:44;94708.63;;;12.34;58.09
69524;BME280;56723;42.694;23.286;2022-12-07T12:54:22;94707.47;;;12.36;58.15
69524;BME280;56723;42.694;23.286;2022-12-07T12:59:26;94717.47;;;12.75;58.24
69524;BME280;56723;42.694;23.286;2022-12-07T13:02:08;94713.44;;;12.73;55.82
69524;BME280;56723;42.694;23.286;2022-12-07T13:04:51;94715.34;;;12.86;56.08
69524;BME280;56723;42.694;23.286;2022-12-07T13:15:49;94709.41;;;13.13;53.87
69524;BME280;56723;42.694;23.286;2022-12-07T13:29:05;94701.09;;;12.81;55.55
69524;BME280;56723;42.694;23.286;2022-12-07T13:34:00;94707.63;;;12.92;55.39
69524;BME280;56723;42.694;23.286;2022-12-07T13:36:31;94701.72;;;13.05;54.50
69524;BME280;56723;42.694;23.286;2022-12-07T13:39:23;94704.75;;;13.30;53.83
69524;BME280;56723;42.694;23.286;2022-12-07T13:41:54;94701.78;;;13.39;53.39
69524;BME280;56723;42.694;23.286;2022-12-07T13:44:27;94697.13;;;13.28;53.83
69524;BME280;56723;42.694;23.286;2022-12-07T13:49:30;94698.81;;;12.72;56.08
69524;BME280;56723;42.694;23.286;2022-12-07T13:52:30;94700.84;;;12.34;57.67
69524;BME280;56723;42.694;23.286;2022-12-07T13:57:33;94697.97;;;11.78;60.85
69524;BME280;56723;42.694;23.286;2022-12-07T14:00:04;94692.78;;;11.49;62.58
69524;BME280;56723;42.694;23.286;2022-12-07T14:02:34;94695.59;;;11.24;63.85
69524;BME280;56723;42.694;23.286;2022-12-07T14:05:22;94700.22;;;11.14;64.98
69524;BME280;56723;42.694;23.286;2022-12-07T14:07:58;94705.91;;;10.95;65.70
69524;BME280;56723;42.694;23.286;2022-12-07T14:10:28;94694.75;;;10.71;66.93
69524;BME280;56723;42.694;23.286;2022-12-07T14:12:56;94695.56;;;10.49;68.10
69524;BME280;56723;42.694;23.286;2022-12-07T14:15:28;94709.25;;;10.35;69.18
69524;BME280;56723;42.694;23.286;2022-12-07T14:17:56;94707.50;;;10.27;69.76
69524;BME280;56723;42.694;23.286;2022-12-07T14:23:04;94709.66;;;10.16;70.46
69524;BME280;56723;42.694;23.286;2022-12-07T14:25:49;94712.56;;;10.21;70.72
69524;BME280;56723;42.694;23.286;2022-12-07T14:28:30;94711.31;;;10.08;70.85
69524;BME280;56723;42.694;23.286;2022-12-07T14:30:57;94693.25;;;9.92;71.30
69524;BME280;56723;42.694;23.286;2022-12-07T14:33:25;94710.19;;;10.03;71.45
69524;BME280;56723;42.694;23.286;2022-12-07T14:35:52;94711.00;;;10.03;71.34
69524;BME280;56723;42.694;23.286;2022-12-07T14:38:22;94718.94;;;10.02;71.44
69524;BME280;56723;42.694;23.286;2022-12-07T14:40:48;94714.56;;;10.02;71.63
69524;BME280;56723;42.694;23.286;2022-12-07T14:43:17;94707.78;;;10.01;71.97
69524;BME280;56723;42.694;23.286;2022-12-07T14:45:44;94718.81;;;9.95;71.74
69524;BME280;56723;42.694;23.286;2022-12-07T14:48:13;94708.78;;;9.92;72.03
69524;BME280;56723;42.694;23.286;2022-12-07T14:51:00;94705.47;;;9.76;72.89
69524;BME280;56723;42.694;23.286;2022-12-07T14:53:50;94712.13;;;9.70;72.66
69524;BME280;56723;42.694;23.286;2022-12-07T14:56:24;94711.50;;;9.60;73.03
69524;BME280;56723;42.694;23.286;2022-12-07T14:58:51;94709.25;;;9.57;73.21
69524;BME280;56723;42.694;23.286;2022-12-07T15:01:18;94712.81;;;9.56;72.93
69524;BME280;56723;42.694;23.286;2022-12-07T15:03:45;94716.72;;;9.44;74.21
69524;BME280;56723;42.694;23.286;2022-12-07T15:06:17;94719.47;;;9.34;74.76
69524;BME280;56723;42.694;23.286;2022-12-07T15:08:44;94716.41;;;9.30;74.94
69524;BME280;56723;42.694;23.286;2022-12-07T15:11:13;94722.22;;;9.32;74.96
69524;BME280;56723;42.694;23.286;2022-12-07T15:13:40;94728.41;;;9.23;75.06
69524;BME280;56723;42.694;23.286;2022-12-07T15:16:26;94730.50;;;9.20;75.35
69524;BME280;56723;42.694;23.286;2022-12-07T15:19:12;94731.97;;;9.22;78.32
69524;BME280;56723;42.694;23.286;2022-12-07T15:21:56;94728.72;;;9.20;76.83
69524;BME280;56723;42.694;23.286;2022-12-07T15:24:23;94725.81;;;9.15;76.55
69524;BME280;56723;42.694;23.286;2022-12-07T15:26:51;94727.47;;;9.08;77.06
69524;BME280;56723;42.694;23.286;2022-12-07T15:29:18;94734.22;;;9.01;77.96
69524;BME280;56723;42.694;23.286;2022-12-07T15:31:51;94725.03;;;8.82;79.06
69524;BME280;56723;42.694;23.286;2022-12-07T15:34:26;94730.69;;;8.70;79.73
69524;BME280;56723;42.694;23.286;2022-12-07T15:37:05;94738.72;;;8.58;80.45
69524;BME280;56723;42.694;23.286;2022-12-07T15:39:32;94739.03;;;8.39;81.98
69524;BME280;56723;42.694;23.286;2022-12-07T15:41:59;94738.38;;;8.37;81.89
69524;BME280;56723;42.694;23.286;2022-12-07T15:44:25;94741.56;;;8.31;81.81
69524;BME280;56723;42.694;23.286;2022-12-07T15:47:11;94746.84;;;8.13;82.87
69524;BME280;56723;42.694;23.286;2022-12-07T15:49:38;94749.84;;;8.00;83.37
69524;BME280;56723;42.694;23.286;2022-12-07T15:52:05;94741.44;;;7.90;83.81
69524;BME280;56723;42.694;23.286;2022-12-07T15:54:32;94745.44;;;7.85;84.74
69524;BME280;56723;42.694;23.286;2022-12-07T15:57:01;94746.56;;;7.82;85.01
69524;BME280;56723;42.694;23.286;2022-12-07T15:59:28;94744.47;;;7.78;85.13
69524;BME280;56723;42.694;23.286;2022-12-07T16:01:56;94746.38;;;7.76;85.45
69524;BME280;56723;42.694;23.286;2022-12-07T16:04:23;94741.81;;;7.70;85.76
69524;BME280;56723;42.694;23.286;2022-12-07T16:06:50;94736.47;;;7.63;85.58
69524;BME280;56723;42.694;23.286;2022-12-07T16:09:18;94745.34;;;7.60;85.56
69524;BME280;56723;42.694;23.286;2022-12-07T16:11:45;94753.84;;;7.61;86.56
69524;BME280;56723;42.694;23.286;2022-12-07T16:14:12;94742.34;;;7.47;86.75
69524;BME280;56723;42.694;23.286;2022-12-07T16:16:39;94750.91;;;7.48;87.01
69524;BME280;56723;42.694;23.286;2022-12-07T16:19:07;94744.41;;;7.44;87.05
69524;BME280;56723;42.694;23.286;2022-12-07T16:21:35;94752.16;;;7.44;87.45
69524;BME280;56723;42.694;23.286;2022-12-07T16:24:02;94756.03;;;7.40;87.04
69524;BME280;56723;42.694;23.286;2022-12-07T16:26:29;94756.63;;;7.34;86.96
69524;BME280;56723;42.694;23.286;2022-12-07T16:28:57;94756.41;;;7.27;88.13
69524;BME280;56723;42.694;23.286;2022-12-07T16:31:26;94767.47;;;7.19;89.51
69524;BME280;56723;42.694;23.286;2022-12-07T16:33:55;94757.06;;;7.03;90.97
69524;BME280;56723;42.694;23.286;2022-12-07T16:36:24;94777.69;;;7.03;91.53
69524;BME280;56723;42.694;23.286;2022-12-07T16:39:12;94780.03;;;6.97;91.39
69524;BME280;56723;42.694;23.286;2022-12-07T16:41:39;94781.66;;;6.80;92.76
69524;BME280;56723;42.694;23.286;2022-12-07T16:44:07;94778.84;;;6.73;92.94
69524;BME280;56723;42.694;23.286;2022-12-07T16:46:36;94778.94;;;6.64;93.25
69524;BME280;56723;42.694;23.286;2022-12-07T16:49:04;94794.09;;;6.67;93.83
69524;BME280;56723;42.694;23.286;2022-12-07T16:51:31;94797.53;;;6.57;94.37
69524;BME280;56723;42.694;23.286;2022-12-07T16:53:59;94782.97;;;6.48;94.41
69524;BME280;56723;42.694;23.286;2022-12-07T16:56:26;94779.06;;;6.44;94.62
69524;BME280;56723;42.694;23.286;2022-12-07T16:58:58;94792.22;;;6.41;95.04
69524;BME280;56723;42.694;23.286;2022-12-07T17:01:24;94786.28;;;6.41;95.37
69524;BME280;56723;42.694;23.286;2022-12-07T17:03:56;94791.56;;;6.39;95.80
69524;BME280;56723;42.694;23.286;2022-12-07T17:06:26;94784.78;;;6.38;95.58
69524;BME280;56723;42.694;23.286;2022-12-07T17:08:56;94784.28;;;6.35;95.34
69524;BME280;56723;42.694;23.286;2022-12-07T17:11:26;94781.84;;;6.33;95.98
69524;BME280;56723;42.694;23.286;2022-12-07T17:13:53;94779.13;;;6.35;96.14
69524;BME280;56723;42.694;23.286;2022-12-07T17:16:39;94764.16;;;6.30;97.01
69524;BME280;56723;42.694;23.286;2022-12-07T17:19:09;94774.78;;;6.35;96.03
69524;BME280;56723;42.694;23.286;2022-12-07T17:21:37;94785.09;;;6.35;96.21
69524;BME280;56723;42.694;23.286;2022-12-07T17:24:06;94788.59;;;6.34;95.75
69524;BME280;56723;42.694;23.286;2022-12-07T17:26:34;94787.47;;;6.19;96.15
69524;BME280;56723;42.694;23.286;2022-12-07T17:29:03;94797.91;;;6.17;96.91
69524;BME280;56723;42.694;23.286;2022-12-07T17:31:31;94790.94;;;6.10;97.34
69524;BME280;56723;42.694;23.286;2022-12-07T17:33:59;94793.69;;;5.99;98.95
69524;BME280;56723;42.694;23.286;2022-12-07T17:36:30;94789.25;;;5.91;100.00
69524;BME280;56723;42.694;23.286;2022-12-07T17:38:58;94790.47;;;5.87;100.00
69524;BME280;56723;42.694;23.286;2022-12-07T17:41:27;94785.94;;;5.71;100.00
69524;BME280;56723;42.694;23.286;2022-12-07T17:44:16;94784.72;;;5.66;100.00
69524;BME280;56723;42.694;23.286;2022-12-07T17:46:44;94785.00;;;5.63;100.00
69524;BME280;56723;42.694;23.286;2022-12-07T17:49:11;94792.72;;;5.63;100.00
69524;BME280;56723;42.694;23.286;2022-12-07T17:51:39;94801.09;;;5.65;100.00
69524;BME280;56723;42.694;23.286;2022-12-07T17:54:24;94797.03;;;5.62;100.00
69524;BME280;56723;42.694;23.286;2022-12-07T17:56:51;94799.88;;;5.59;100.00
69524;BME280;56723;42.694;23.286;2022-12-07T17:59:18;94808.84;;;5.55;100.00
69524;BME280;56723;42.694;23.286;2022-12-07T18:01:45;94792.63;;;5.45;100.00
69524;BME280;56723;42.694;23.286;2022-12-07T18:04:12;94806.00;;;5.48;100.00
69524;BME280;56723;42.694;23.286;2022-12-07T18:06:39;94803.59;;;5.47;100.00
69524;BME280;56723;42.694;23.286;2022-12-07T18:09:07;94804.81;;;5.43;100.00
69524;BME280;56723;42.694;23.286;2022-12-07T18:11:35;94811.97;;;5.49;100.00
69524;BME280;56723;42.694;23.286;2022-12-07T18:14:02;94806.56;;;5.52;100.00
69524;BME280;56723;42.694;23.286;2022-12-07T18:16:31;94809.75;;;5.64;100.00
69524;BME280;56723;42.694;23.286;2022-12-07T18:19:03;94819.88;;;5.75;100.00
69524;BME280;56723;42.694;23.286;2022-12-07T18:21:30;94813.13;;;5.64;100.00
69524;BME280;56723;42.694;23.286;2022-12-07T18:23:59;94812.06;;;5.57;100.00
69524;BME280;56723;42.694;23.286;2022-12-07T18:26:32;94815.59;;;5.56;100.00
69524;BME280;56723;42.694;23.286;2022-12-07T18:28:59;94818.47;;;5.53;100.00
69524;BME280;56723;42.694;23.286;2022-12-07T18:31:27;94828.59;;;5.54;100.00
69524;BME280;56723;42.694;23.286;2022-12-07T18:33:55;94826.84;;;5.45;100.00
69524;BME280;56723;42.694;23.286;2022-12-07T18:36:23;94824.41;;;5.44;100.00
69524;BME280;56723;42.694;23.286;2022-12-07T18:38:50;94825.94;;;5.37;100.00
69524;BME280;56723;42.694;23.286;2022-12-07T18:41:17;94829.31;;;5.37;100.00
69524;BME280;56723;42.694;23.286;2022-12-07T18:43:44;94837.03;;;5.28;100.00
69524;BME280;56723;42.694;23.286;2022-12-07T18:46:17;94842.69;;;5.21;100.00
69524;BME280;56723;42.694;23.286;2022-12-07T18:48:45;94838.81;;;5.17;100.00
69524;BME280;56723;42.694;23.286;2022-12-07T18:51:14;94850.41;;;5.12;100.00
69524;BME280;56723;42.694;23.286;2022-12-07T18:53:41;94845.56;;;4.99;100.00
69524;BME280;56723;42.694;23.286;2022-12-07T18:56:20;94846.78;;;4.95;100.00
69524;BME280;56723;42.694;23.286;2022-12-07T18:58:54;94846.09;;;4.93;100.00
69524;BME280;56723;42.694;23.286;2022-12-07T19:01:42;94841.09;;;4.82;100.00
69524;BME280;56723;42.694;23.286;2022-12-07T19:04:09;94843.00;;;4.80;100.00
69524;BME280;56723;42.694;23.286;2022-12-07T19:06:36;94842.19;;;4.79;100.00
69524;BME280;56723;42.694;23.286;2022-12-07T19:09:03;94842.03;;;4.71;100.00
69524;BME280;56723;42.694;23.286;2022-12-07T19:11:32;94853.09;;;4.72;100.00
69524;BME280;56723;42.694;23.286;2022-12-07T19:14:25;94856.88;;;4.68;100.00
69524;BME280;56723;42.694;23.286;2022-12-07T19:16:58;94856.63;;;4.71;100.00
69524;BME280;56723;42.694;23.286;2022-12-07T19:19:32;94854.88;;;4.71;100.00
69524;BME280;56723;42.694;23.286;2022-12-07T19:21:59;94854.47;;;4.76;100.00
69524;BME280;56723;42.694;23.286;2022-12-07T19:24:27;94852.84;;;4.75;100.00
69524;BME280;56723;42.694;23.286;2022-12-07T19:26:57;94853.25;;;4.70;100.00
69524;BME280;56723;42.694;23.286;2022-12-07T19:29:24;94857.03;;;4.76;100.00
69524;BME280;56723;42.694;23.286;2022-12-07T19:31:53;94853.41;;;4.78;100.00
69524;BME280;56723;42.694;23.286;2022-12-07T19:34:20;94852.84;;;4.75;100.00
69524;BME280;56723;42.694;23.286;2022-12-07T19:36:47;94861.75;;;4.71;100.00
69524;BME280;56723;42.694;23.286;2022-12-07T19:39:14;94850.41;;;4.64;100.00
69524;BME280;56723;42.694;23.286;2022-12-07T19:41:42;94857.31;;;4.63;100.00
69524;BME280;56723;42.694;23.286;2022-12-07T19:44:15;94859.06;;;4.63;100.00
69524;BME280;56723;42.694;23.286;2022-12-07T19:46:44;94857.44;;;4.62;100.00
69524;BME280;56723;42.694;23.286;2022-12-07T19:49:13;94855.13;;;4.59;100.00
69524;BME280;56723;42.694;23.286;2022-12-07T19:51:48;94857.13;;;4.55;100.00
69524;BME280;56723;42.694;23.286;2022-12-07T19:54:17;94857.41;;;4.52;100.00
69524;BME280;56723;42.694;23.286;2022-12-07T19:56:45;94854.28;;;4.48;100.00
69524;BME280;56723;42.694;23.286;2022-12-07T19:59:13;94853.47;;;4.48;100.00
69524;BME280;56723;42.694;23.286;2022-12-07T20:01:41;94859.03;;;4.43;100.00
69524;BME280;56723;42.694;23.286;2022-12-07T20:04:11;94856.72;;;4.40;100.00
69524;BME280;56723;42.694;23.286;2022-12-07T20:06:39;94849.97;;;4.39;100.00
69524;BME280;56723;42.694;23.286;2022-12-07T20:09:06;94863.97;;;4.35;100.00
69524;BME280;56723;42.694;23.286;2022-12-07T20:11:33;94862.34;;;4.34;100.00
69524;BME280;56723;42.694;23.286;2022-12-07T20:14:20;94875.88;;;4.36;100.00
69524;BME280;56723;42.694;23.286;2022-12-07T20:16:50;94876.81;;;4.35;100.00
69524;BME280;56723;42.694;23.286;2022-12-07T20:19:17;94878.69;;;4.33;100.00
69524;BME280;56723;42.694;23.286;2022-12-07T20:21:45;94874.63;;;4.31;100.00
69524;BME280;56723;42.694;23.286;2022-12-07T20:24:15;94879.88;;;4.29;100.00
69524;BME280;56723;42.694;23.286;2022-12-07T20:26:44;94882.72;;;4.26;100.00
69524;BME280;56723;42.694;23.286;2022-12-07T20:29:12;94879.47;;;4.24;100.00
69524;BME280;56723;42.694;23.286;2022-12-07T20:31:45;94870.97;;;4.24;100.00
69524;BME280;56723;42.694;23.286;2022-12-07T20:34:13;94878.13;;;4.20;100.00
69524;BME280;56723;42.694;23.286;2022-12-07T20:36:40;94884.56;;;4.14;100.00
69524;BME280;56723;42.694;23.286;2022-12-07T20:39:07;94877.69;;;4.15;100.00
69524;BME280;56723;42.694;23.286;2022-12-07T20:41:35;94889.81;;;4.13;100.00
69524;BME280;56723;42.694;23.286;2022-12-07T20:44:21;94889.41;;;4.08;100.00
69524;BME280;56723;42.694;23.286;2022-12-07T20:46:48;94901.00;;;4.12;100.00
69524;BME280;56723;42.694;23.286;2022-12-07T20:49:15;94891.97;;;4.08;100.00
69524;BME280;56723;42.694;23.286;2022-12-07T20:51:44;94890.47;;;4.05;100.00
69524;BME280;56723;42.694;23.286;2022-12-07T20:54:12;94893.16;;;4.04;100.00
69524;BME280;56723;42.694;23.286;2022-12-07T20:56:39;94890.59;;;4.04;100.00
69524;BME280;56723;42.694;23.286;2022-12-07T20:59:10;94893.84;;;4.06;100.00
69524;BME280;56723;42.694;23.286;2022-12-07T21:01:38;94898.81;;;3.98;100.00
69524;BME280;56723;42.694;23.286;2022-12-07T21:04:05;94899.06;;;3.95;100.00
69524;BME280;56723;42.694;23.286;2022-12-07T21:06:32;94897.94;;;3.88;100.00
69524;BME280;56723;42.694;23.286;2022-12-07T21:09:00;94897.84;;;3.68;100.00
69524;BME280;56723;42.694;23.286;2022-12-07T21:11:28;94901.97;;;3.60;100.00
69524;BME280;56723;42.694;23.286;2022-12-07T21:13:56;94894.25;;;3.50;100.00
69524;BME280;56723;42.694;23.286;2022-12-07T21:16:27;94889.34;;;3.47;100.00
69524;BME280;56723;42.694;23.286;2022-12-07T21:18:55;94895.66;;;3.43;100.00
69524;BME280;56723;42.694;23.286;2022-12-07T21:21:23;94897.28;;;3.44;100.00
69524;BME280;56723;42.694;23.286;2022-12-07T21:23:52;94899.16;;;3.42;100.00
69524;BME280;56723;42.694;23.286;2022-12-07T21:26:27;94897.53;;;3.41;100.00
69524;BME280;56723;42.694;23.286;2022-12-07T21:28:55;94891.72;;;3.39;100.00
69524;BME280;56723;42.694;23.286;2022-12-07T21:31:22;94887.41;;;3.39;100.00
69524;BME280;56723;42.694;23.286;2022-12-07T21:33:49;94893.34;;;3.40;100.00
69524;BME280;56723;42.694;23.286;2022-12-07T21:36:19;94891.47;;;3.42;100.00
69524;BME280;56723;42.694;23.286;2022-12-07T21:38:47;94888.78;;;3.43;100.00
69524;BME280;56723;42.694;23.286;2022-12-07T21:41:19;94894.03;;;3.42;100.00
69524;BME280;56723;42.694;23.286;2022-12-07T21:43:49;94897.09;;;3.36;100.00
69524;BME280;56723;42.694;23.286;2022-12-07T21:46:19;94901.78;;;3.31;100.00
69524;BME280;56723;42.694;23.286;2022-12-07T21:48:51;94907.31;;;3.36;100.00
69524;BME280;56723;42.694;23.286;2022-12-07T21:51:20;94899.91;;;3.33;100.00
69524;BME280;56723;42.694;23.286;2022-12-07T21:53:47;94904.88;;;3.34;100.00
69524;BME280;56723;42.694;23.286;2022-12-07T21:56:22;94905.84;;;3.33;100.00
69524;BME280;56723;42.694;23.286;2022-12-07T21:58:52;94893.53;;;3.27;100.00